Time;durP1;ratioP1;P1;durP2;ratioP2;P2;SDS_P1;SDS_P2;PMS_P1;PMS_P2;Temp;Humidity;BMP_temperature;BMP_pressure;BME280_temperature;BME280_humidity;BME280_pressure;Samples;Min_cycle;Max_cycle;Signal;HPM_P1;HPM_P2
2023/11/18 05:01:47;;;;;;;1.10;1.00;;;3.50;97.30;;;;;;5323379;23;20567;-87
2023/11/18 05:04:13;;;;;;;2.23;2.03;;;3.60;97.30;;;;;;4896820;29;20424;-87
2023/11/18 05:06:38;;;;;;;2.63;2.43;;;3.60;97.30;;;;;;4910389;29;20211;-87
2023/11/18 05:09:07;;;;;;;1.80;1.70;;;3.60;97.30;;;;;;4909814;29;20560;-88
2023/11/18 05:11:33;;;;;;;1.77;1.67;;;3.70;97.30;;;;;;4899641;29;20193;-87
2023/11/18 05:13:59;;;;;;;1.90;1.60;;;3.70;97.30;;;;;;4915974;29;20474;-88
2023/11/18 05:16:24;;;;;;;1.40;1.30;;;3.70;97.30;;;;;;4902842;29;20212;-90
2023/11/18 05:18:50;;;;;;;1.37;1.27;;;3.70;97.30;;;;;;4905599;29;20670;-90
2023/11/18 05:21:15;;;;;;;1.13;1.03;;;3.70;97.30;;;;;;4915280;29;20208;-87
2023/11/18 05:23:41;;;;;;;2.30;2.10;;;3.70;97.30;;;;;;4904903;29;20606;-88
2023/11/18 05:26:06;;;;;;;1.10;1.00;;;3.70;97.30;;;;;;4899999;29;20584;-87
2023/11/18 05:28:32;;;;;;;2.50;2.30;;;3.70;97.30;;;;;;4902443;29;20276;-88
2023/11/18 05:31:01;;;;;;;1.60;1.50;;;3.70;97.30;;;;;;4907136;29;20307;-86
2023/11/18 05:33:27;;;;;;;1.40;1.30;;;3.70;97.30;;;;;;4900288;29;20709;-86
2023/11/18 05:35:53;;;;;;;3.17;1.43;;;3.80;97.30;;;;;;4902806;29;21012;-86
2023/11/18 05:38:21;;;;;;;1.73;1.30;;;3.80;97.30;;;;;;4905714;29;20428;-87
2023/11/18 05:40:57;;;;;;;1.73;1.63;;;3.70;97.30;;;;;;4905163;29;20239;-85
2023/11/18 05:43:44;;;;;;;1.27;1.27;;;3.70;97.30;;;;;;4915955;29;20424;-87
2023/11/18 05:46:24;;;;;;;1.93;1.83;;;3.70;97.30;;;;;;4902759;29;21018;-88
2023/11/18 05:48:50;;;;;;;1.30;1.20;;;3.80;97.30;;;;;;4908856;29;20424;-87
2023/11/18 05:51:21;;;;;;;1.30;1.20;;;3.80;97.30;;;;;;4902522;29;20451;-87
2023/11/18 05:53:47;;;;;;;2.67;2.30;;;3.90;97.30;;;;;;4925257;29;20466;-87
2023/11/18 05:56:13;;;;;;;1.33;1.23;;;3.90;97.30;;;;;;4902566;29;20464;-87
2023/11/18 05:58:39;;;;;;;1.93;1.83;;;3.90;97.30;;;;;;4907296;29;20417;-88
2023/11/18 06:01:08;;;;;;;2.00;1.87;;;3.90;97.30;;;;;;4923389;29;20555;-88
2023/11/18 06:03:37;;;;;;;5.03;2.00;;;3.90;97.30;;;;;;4911202;29;20800;-88
2023/11/18 06:06:08;;;;;;;1.37;1.30;;;3.90;97.30;;;;;;4903672;29;20467;-88
2023/11/18 06:08:34;;;;;;;1.53;1.43;;;4.00;97.30;;;;;;4905262;29;21005;-87
2023/11/18 06:11:05;;;;;;;1.20;1.10;;;4.00;97.30;;;;;;4904177;29;20435;-87
2023/11/18 06:13:31;;;;;;;1.30;1.20;;;4.00;97.30;;;;;;4905061;29;20589;-87
2023/11/18 06:15:58;;;;;;;1.20;1.10;;;4.00;97.30;;;;;;4907726;29;20467;-87
2023/11/18 06:18:24;;;;;;;1.23;1.13;;;4.00;97.30;;;;;;4905312;29;20190;-87
2023/11/18 06:20:49;;;;;;;1.63;1.53;;;4.00;97.30;;;;;;4911042;29;20438;-87
2023/11/18 06:23:18;;;;;;;3.30;3.10;;;4.00;97.30;;;;;;4901901;29;20656;-86
2023/11/18 06:25:45;;;;;;;1.20;1.10;;;4.00;97.30;;;;;;4902878;29;20272;-87
2023/11/18 06:28:11;;;;;;;1.70;1.37;;;4.00;97.30;;;;;;4923071;29;20427;-87
2023/11/18 06:30:36;;;;;;;1.60;1.50;;;4.00;97.30;;;;;;4903719;29;20456;-88
2023/11/18 06:33:02;;;;;;;1.50;1.40;;;4.00;97.30;;;;;;4904051;29;20176;-87
2023/11/18 06:35:29;;;;;;;1.50;1.40;;;4.00;97.30;;;;;;4905569;29;20180;-87
2023/11/18 06:37:55;;;;;;;5.80;1.63;;;4.00;97.30;;;;;;4908434;29;20247;-87
2023/11/18 06:40:21;;;;;;;1.73;1.63;;;4.00;97.30;;;;;;4902022;29;20931;-86
2023/11/18 06:42:47;;;;;;;1.63;1.53;;;4.00;97.30;;;;;;4901917;29;20251;-88
2023/11/18 06:45:14;;;;;;;1.33;1.23;;;4.00;97.30;;;;;;4905446;29;20436;-88
2023/11/18 06:47:44;;;;;;;8.63;3.43;;;4.00;97.30;;;;;;4907244;29;20252;-87
2023/11/18 06:50:15;;;;;;;1.13;1.03;;;4.00;97.30;;;;;;4923409;29;20507;-87
2023/11/18 06:52:44;;;;;;;1.20;1.10;;;3.90;97.30;;;;;;4903819;29;20444;-87
2023/11/18 06:55:11;;;;;;;1.37;1.27;;;3.90;97.30;;;;;;4903986;29;20424;-86
2023/11/18 06:57:36;;;;;;;3.17;2.93;;;3.90;97.30;;;;;;4899439;29;20534;-85
2023/11/18 07:00:08;;;;;;;1.50;1.40;;;3.90;97.30;;;;;;4906851;29;20420;-88
2023/11/18 07:02:33;;;;;;;1.60;1.50;;;3.90;97.30;;;;;;4906566;29;20235;-86
2023/11/18 07:04:59;;;;;;;1.93;1.83;;;3.90;97.30;;;;;;4923803;29;20424;-86
2023/11/18 07:07:24;;;;;;;1.20;1.10;;;3.90;97.30;;;;;;4904425;29;20207;-87
2023/11/18 07:09:52;;;;;;;1.63;1.53;;;4.00;97.30;;;;;;4901945;29;20654;-87
2023/11/18 07:12:19;;;;;;;3.27;2.90;;;4.00;97.30;;;;;;4905696;29;20695;-87
2023/11/18 07:14:44;;;;;;;2.30;1.37;;;4.00;97.30;;;;;;4908172;29;20428;-88
2023/11/18 07:17:10;;;;;;;1.70;1.70;;;4.00;97.30;;;;;;4899146;29;20534;-88
2023/11/18 07:19:35;;;;;;;13.63;2.63;;;4.10;97.30;;;;;;4899093;29;20184;-86
2023/11/18 07:22:02;;;;;;;2.80;2.07;;;4.10;97.30;;;;;;4921243;29;20215;-88
2023/11/18 07:24:29;;;;;;;2.00;1.93;;;4.20;97.30;;;;;;4908950;29;20193;-87
2023/11/18 07:26:55;;;;;;;1.77;1.67;;;4.20;97.30;;;;;;4922352;29;20420;-88
2023/11/18 07:29:23;;;;;;;1.90;1.80;;;4.20;97.30;;;;;;4901926;29;20764;-86
2023/11/18 07:31:49;;;;;;;1.50;1.40;;;4.30;97.30;;;;;;4905036;29;20220;-87
2023/11/18 07:34:15;;;;;;;3.90;1.70;;;4.30;97.30;;;;;;4914219;29;20425;-87
2023/11/18 07:36:40;;;;;;;4.40;2.93;;;4.30;97.30;;;;;;4910111;29;20304;-86
2023/11/18 07:39:15;;;;;;;1.90;1.80;;;4.30;97.30;;;;;;4915237;29;20417;-88
2023/11/18 07:41:41;;;;;;;5.80;3.77;;;4.40;97.30;;;;;;4909114;29;20783;-85
2023/11/18 07:44:06;;;;;;;1.27;1.17;;;4.40;97.30;;;;;;4903671;29;20423;-84
2023/11/18 07:46:32;;;;;;;1.63;1.53;;;4.50;97.30;;;;;;4906157;29;20825;-89
2023/11/18 07:48:57;;;;;;;1.63;1.53;;;4.50;97.30;;;;;;4921946;29;20701;-88
2023/11/18 07:51:24;;;;;;;1.70;1.60;;;4.60;97.30;;;;;;4901517;29;20722;-88
2023/11/18 07:53:50;;;;;;;6.33;3.63;;;4.60;97.30;;;;;;4909541;29;20217;-87
2023/11/18 07:56:16;;;;;;;3.57;3.37;;;4.70;97.30;;;;;;4902312;29;21042;-87
2023/11/18 07:58:46;;;;;;;2.10;1.87;;;4.70;97.30;;;;;;4905741;29;20520;-88
2023/11/18 08:01:12;;;;;;;3.53;2.43;;;4.80;97.30;;;;;;4897365;29;20627;-85
2023/11/18 08:03:38;;;;;;;2.83;2.07;;;4.90;97.30;;;;;;4907205;29;20452;-86
2023/11/18 08:06:06;;;;;;;2.37;2.17;;;4.90;97.30;;;;;;4902090;29;20466;-87
2023/11/18 08:08:32;;;;;;;1.27;1.17;;;4.90;97.30;;;;;;4903705;29;20246;-87
2023/11/18 08:10:58;;;;;;;11.13;2.17;;;5.00;97.30;;;;;;4904026;29;20440;-86
2023/11/18 08:13:23;;;;;;;3.40;3.20;;;5.10;97.30;;;;;;4904601;29;20424;-87
2023/11/18 08:15:49;;;;;;;5.60;3.93;;;5.10;97.30;;;;;;4906848;29;20259;-86
2023/11/18 08:18:15;;;;;;;3.17;2.63;;;5.10;97.30;;;;;;4910897;29;20218;-87
2023/11/18 08:20:41;;;;;;;2.50;2.20;;;5.20;97.30;;;;;;4903339;29;20208;-87
2023/11/18 08:23:06;;;;;;;4.67;2.07;;;5.20;97.30;;;;;;4910806;29;20447;-88
2023/11/18 08:25:35;;;;;;;3.30;3.10;;;5.20;97.30;;;;;;4925803;29;20915;-88
2023/11/18 08:28:02;;;;;;;5.17;3.33;;;5.20;97.30;;;;;;4928095;29;20184;-87
2023/11/18 08:30:27;;;;;;;3.77;2.80;;;5.30;97.30;;;;;;4921277;29;20415;-90
2023/11/18 08:32:53;;;;;;;6.77;3.50;;;5.40;97.30;;;;;;4902449;29;20432;-87
2023/11/18 08:35:21;;;;;;;6.30;4.23;;;5.40;97.30;;;;;;4906016;29;20333;-87
2023/11/18 08:37:47;;;;;;;3.07;2.87;;;5.50;97.30;;;;;;4906033;29;20480;-87
2023/11/18 08:40:17;;;;;;;3.03;2.70;;;5.60;97.30;;;;;;4898685;29;20413;-89
2023/11/18 08:42:49;;;;;;;2.87;2.20;;;5.70;97.30;;;;;;4899950;29;20536;-86
2023/11/18 08:45:32;;;;;;;7.93;3.87;;;5.70;97.30;;;;;;4902630;29;20643;-89
2023/11/18 08:48:07;;;;;;;7.80;2.63;;;5.60;97.30;;;;;;4917354;29;20465;-87
2023/11/18 08:50:33;;;;;;;3.50;2.83;;;5.60;97.30;;;;;;4897937;29;20423;-88
2023/11/18 08:52:59;;;;;;;2.87;2.67;;;5.70;97.30;;;;;;4899969;29;20444;-87
2023/11/18 08:56:14;;;;;;;4.30;1.63;;;5.80;97.30;;;;;;4899385;29;20507;-88
2023/11/18 08:58:27;;;;;;;7.30;3.20;;;5.90;97.30;;;;;;4903266;29;20659;-87
2023/11/18 09:00:55;;;;;;;7.70;3.93;;;6.00;97.30;;;;;;4895237;29;20482;-87
2023/11/18 09:03:25;;;;;;;2.90;2.23;;;6.10;97.30;;;;;;4900432;29;20420;-88
2023/11/18 09:05:58;;;;;;;3.03;2.60;;;6.20;97.30;;;;;;4901007;29;20476;-87
2023/11/18 09:08:34;;;;;;;7.33;3.07;;;6.40;97.30;;;;;;4900352;29;20439;-88
2023/11/18 09:11:01;;;;;;;3.77;3.57;;;6.40;97.30;;;;;;4912347;29;20479;-87
2023/11/18 09:13:31;;;;;;;5.60;1.60;;;6.30;97.30;;;;;;4916980;29;20428;-87
2023/11/18 09:15:58;;;;;;;6.07;2.40;;;6.20;97.30;;;;;;4899995;29;20499;-89
2023/11/18 09:18:25;;;;;;;3.33;3.10;;;6.20;97.30;;;;;;4902548;29;20420;-87
2023/11/18 09:20:52;;;;;;;3.43;3.23;;;6.10;97.30;;;;;;4900022;29;20820;-88
2023/11/18 09:23:18;;;;;;;5.93;2.30;;;6.10;97.30;;;;;;4897001;29;20437;-89
2023/11/18 09:25:46;;;;;;;3.20;3.00;;;6.10;97.30;;;;;;4916403;29;20429;-89
2023/11/18 09:28:13;;;;;;;1.67;1.57;;;6.20;97.30;;;;;;4915419;29;20431;-88
2023/11/18 09:30:49;;;;;;;2.93;2.73;;;6.40;97.30;;;;;;4899623;29;20424;-88
2023/11/18 09:33:25;;;;;;;4.57;3.27;;;6.50;97.30;;;;;;4899852;29;20835;-87
2023/11/18 09:35:55;;;;;;;3.53;1.73;;;6.50;97.30;;;;;;4905442;29;20783;-88
2023/11/18 09:38:21;;;;;;;4.63;2.83;;;6.40;97.30;;;;;;4917113;29;20560;-87
2023/11/18 09:40:49;;;;;;;5.13;2.80;;;6.50;97.30;;;;;;4899553;29;20710;-88
2023/11/18 09:43:16;;;;;;;6.03;2.30;;;6.50;97.30;;;;;;4918457;29;20432;-88
2023/11/18 09:45:45;;;;;;;4.93;4.63;;;6.50;97.30;;;;;;4902612;29;20421;-90
2023/11/18 09:48:13;;;;;;;5.43;3.57;;;6.60;97.30;;;;;;4899870;29;20440;-88
2023/11/18 09:50:41;;;;;;;4.57;4.00;;;6.60;97.30;;;;;;4914947;29;20934;-89
2023/11/18 09:53:11;;;;;;;3.97;2.37;;;6.70;97.30;;;;;;4901851;29;20479;-89
2023/11/18 09:55:49;;;;;;;3.70;3.50;;;6.70;97.30;;;;;;4908784;29;20997;-88
2023/11/18 09:58:18;;;;;;;19.77;4.30;;;6.70;97.30;;;;;;4893715;29;20445;-89
2023/11/18 10:00:50;;;;;;;5.30;2.57;;;6.80;97.30;;;;;;4898330;29;20521;-88
2023/11/18 10:03:16;;;;;;;2.10;2.00;;;6.80;97.30;;;;;;4911129;29;20432;-87
2023/11/18 10:05:42;;;;;;;3.43;2.53;;;6.90;97.30;;;;;;4917292;29;20965;-88
2023/11/18 10:08:08;;;;;;;4.97;2.50;;;7.00;97.30;;;;;;4897982;29;20184;-90
2023/11/18 10:10:37;;;;;;;2.63;1.70;;;7.10;97.30;;;;;;4898254;29;20806;-88
2023/11/18 10:13:25;;;;;;;2.13;1.97;;;7.10;97.30;;;;;;4897415;29;20652;-87
2023/11/18 10:15:53;;;;;;;2.80;2.60;;;7.10;97.30;;;;;;4911636;29;20464;-89
2023/11/18 10:18:25;;;;;;;1.87;1.77;;;7.10;97.30;;;;;;4898826;29;20428;-88
2023/11/18 10:20:52;;;;;;;3.57;2.03;;;7.20;97.30;;;;;;4898886;29;20454;-87
2023/11/18 10:23:19;;;;;;;2.90;1.83;;;7.30;97.30;;;;;;4899062;29;20512;-87
2023/11/18 10:25:49;;;;;;;5.83;3.30;;;7.50;97.30;;;;;;4915846;29;20511;-88
2023/11/18 10:28:28;;;;;;;3.93;2.73;;;7.60;97.30;;;;;;4899530;29;20460;-89
2023/11/18 10:30:58;;;;;;;5.10;3.70;;;7.60;97.30;;;;;;4899316;29;20452;-89
2023/11/18 10:33:31;;;;;;;7.80;2.00;;;7.90;97.30;;;;;;4915478;29;20463;-88
2023/11/18 10:35:58;;;;;;;2.07;1.50;;;8.30;97.30;;;;;;4908384;29;20424;-88
2023/11/18 10:38:25;;;;;;;6.03;1.93;;;8.60;97.30;;;;;;4897590;29;20440;-88
2023/11/18 10:40:55;;;;;;;2.07;1.57;;;8.90;97.30;;;;;;4898414;29;20879;-90
2023/11/18 10:43:24;;;;;;;3.00;2.73;;;8.90;97.00;;;;;;4915459;29;20524;-88
2023/11/18 10:45:51;;;;;;;2.50;1.57;;;8.90;95.80;;;;;;4901081;29;20811;-89
2023/11/18 10:48:19;;;;;;;11.17;1.87;;;8.70;95.80;;;;;;4901710;29;20993;-88
2023/11/18 10:50:49;;;;;;;1.30;1.20;;;8.50;95.90;;;;;;4888931;29;20457;-90
2023/11/18 10:53:17;;;;;;;2.07;1.93;;;8.40;96.60;;;;;;4903097;29;20457;-88
2023/11/18 10:55:43;;;;;;;2.77;1.20;;;8.30;96.70;;;;;;4910824;29;20429;-88
2023/11/18 10:58:09;;;;;;;1.63;1.30;;;8.30;97.00;;;;;;4895897;29;20454;-89
2023/11/18 11:00:49;;;;;;;7.10;2.63;;;8.30;96.70;;;;;;4895837;29;20198;-88
2023/11/18 11:03:16;;;;;;;3.07;1.37;;;8.60;96.20;;;;;;4913630;29;20512;-89
2023/11/18 11:05:43;;;;;;;2.00;1.60;;;9.10;96.10;;;;;;4908408;29;20950;-89
2023/11/18 11:08:12;;;;;;;2.97;1.80;;;9.30;96.30;;;;;;4913662;29;20504;-89
2023/11/18 11:10:42;;;;;;;3.40;1.73;;;9.50;95.40;;;;;;4912016;29;20417;-89
2023/11/18 11:13:08;;;;;;;6.90;2.27;;;9.50;95.70;;;;;;4906866;29;20813;-89
2023/11/18 11:15:42;;;;;;;2.13;1.97;;;9.50;94.80;;;;;;4903526;29;20421;-89
2023/11/18 11:18:09;;;;;;;3.73;2.90;;;9.50;93.90;;;;;;4915504;29;20340;-89
2023/11/18 11:20:42;;;;;;;2.00;1.90;;;9.20;94.00;;;;;;4909893;29;20965;-89
2023/11/18 11:23:19;;;;;;;1.67;1.57;;;9.10;94.60;;;;;;4901961;29;20429;-89
2023/11/18 11:26:08;;;;;;;1.47;1.37;;;8.80;93.30;;;;;;4919208;29;20432;-89
2023/11/18 11:28:43;;;;;;;2.87;2.43;;;8.30;94.30;;;;;;4899748;29;20443;-89
2023/11/18 11:31:16;;;;;;;2.60;2.20;;;8.20;95.80;;;;;;4897163;29;20454;-89
2023/11/18 11:33:58;;;;;;;2.13;1.97;;;8.10;96.10;;;;;;4898399;29;20512;-87
2023/11/18 11:36:31;;;;;;;3.00;1.60;;;7.90;96.10;;;;;;4900933;29;20480;-89
2023/11/18 11:38:59;;;;;;;1.53;1.50;;;7.90;96.80;;;;;;4893786;29;20425;-89
2023/11/18 11:41:28;;;;;;;2.10;1.90;;;7.80;97.30;;;;;;4914832;29;20516;-89
2023/11/18 11:43:58;;;;;;;2.23;2.07;;;7.80;97.30;;;;;;4914919;29;20515;-88
2023/11/18 11:46:26;;;;;;;1.70;1.60;;;7.80;97.10;;;;;;4902452;29;20436;-88
2023/11/18 11:48:55;;;;;;;6.50;2.90;;;7.80;97.30;;;;;;4907305;29;20460;-90
2023/11/18 11:51:20;;;;;;;2.13;1.97;;;7.80;97.30;;;;;;4897928;29;20547;-89
2023/11/18 11:54:04;;;;;;;4.53;2.70;;;7.80;97.30;;;;;;4914635;29;20524;-89
2023/11/18 11:57:00;;;;;;;3.03;2.60;;;7.80;97.30;;;;;;4897735;29;20317;-90
2023/11/18 11:59:55;;;;;;;3.23;2.53;;;7.80;97.30;;;;;;4897750;29;20440;-89
2023/11/18 12:02:25;;;;;;;5.30;2.00;;;7.80;97.30;;;;;;4891649;29;20484;-89
2023/11/18 12:04:53;;;;;;;4.40;4.10;;;7.90;97.30;;;;;;4894559;29;20960;-89
2023/11/18 12:07:23;;;;;;;3.17;2.07;;;7.90;97.30;;;;;;4894510;29;20501;-89
2023/11/18 12:09:57;;;;;;;1.57;1.47;;;8.00;97.30;;;;;;4894108;29;20435;-88
2023/11/18 12:12:27;;;;;;;2.23;1.80;;;8.00;97.30;;;;;;4895547;29;20843;-89
2023/11/18 12:14:56;;;;;;;1.50;1.40;;;8.00;97.30;;;;;;4894116;29;20876;-90
2023/11/18 12:17:22;;;;;;;2.27;1.83;;;8.00;97.30;;;;;;4895551;29;20705;-89
2023/11/18 12:19:48;;;;;;;6.50;1.90;;;8.20;97.30;;;;;;4894104;29;20536;-88
2023/11/18 12:22:18;;;;;;;4.23;3.97;;;8.80;97.30;;;;;;4893877;29;20476;-89
2023/11/18 12:24:58;;;;;;;1.50;1.40;;;9.30;97.30;;;;;;4893717;29;20449;-89
2023/11/18 12:27:39;;;;;;;3.10;3.00;;;9.40;95.90;;;;;;4894142;29;20441;-89
2023/11/18 12:30:30;;;;;;;2.93;2.73;;;9.40;95.50;;;;;;4890396;29;20942;-89
2023/11/18 12:33:10;;;;;;;2.50;2.13;;;9.50;95.90;;;;;;4880902;29;20939;-88
2023/11/18 12:35:51;;;;;;;6.03;2.80;;;9.10;95.20;;;;;;4893954;29;20442;-88
2023/11/18 12:38:40;;;;;;;3.13;2.93;;;9.10;96.10;;;;;;4893911;29;20528;-89
2023/11/18 12:41:11;;;;;;;3.60;3.20;;;9.40;96.00;;;;;;4890203;29;20524;-88
2023/11/18 12:43:58;;;;;;;3.33;2.80;;;9.80;95.20;;;;;;4895227;29;20413;-89
2023/11/18 12:46:55;;;;;;;3.87;2.13;;;10.00;94.70;;;;;;4893301;29;20429;-89
2023/11/18 12:49:23;;;;;;;3.87;2.53;;;10.30;94.70;;;;;;4864719;29;20823;-89
2023/11/18 12:51:50;;;;;;;1.80;1.70;;;10.60;93.20;;;;;;4893283;29;20468;-89
2023/11/18 12:54:16;;;;;;;4.67;2.90;;;10.70;92.10;;;;;;4892802;29;20433;-88
2023/11/18 12:56:44;;;;;;;7.50;2.50;;;10.70;92.30;;;;;;4893466;29;20568;-88
2023/11/18 12:59:12;;;;;;;2.17;2.00;;;10.70;92.10;;;;;;4893539;29;20433;-88
2023/11/18 13:01:41;;;;;;;6.57;3.43;;;10.80;92.60;;;;;;4893469;29;20485;-90
2023/11/18 13:04:08;;;;;;;4.57;2.47;;;10.50;93.10;;;;;;4895166;29;20418;-89
2023/11/18 13:06:34;;;;;;;1.70;1.60;;;10.20;93.90;;;;;;4894591;29;20441;-89
2023/11/18 13:09:05;;;;;;;3.87;3.03;;;9.90;94.90;;;;;;4900756;29;20455;-89
2023/11/18 13:11:33;;;;;;;6.47;4.60;;;9.80;95.50;;;;;;4901625;29;20461;-89
2023/11/18 13:13:59;;;;;;;12.00;4.90;;;9.90;95.50;;;;;;4901161;29;20462;-89
2023/11/18 13:16:25;;;;;;;7.40;4.70;;;9.90;95.50;;;;;;4901269;29;20473;-89
2023/11/18 13:18:51;;;;;;;2.50;2.27;;;9.90;95.60;;;;;;4900761;29;20253;-90
2023/11/18 13:21:18;;;;;;;5.50;2.83;;;9.80;95.20;;;;;;4899231;29;20502;-89
2023/11/18 13:23:52;;;;;;;3.83;2.90;;;9.60;95.20;;;;;;4898806;29;20429;-88
2023/11/18 13:26:19;;;;;;;2.57;2.37;;;9.50;95.60;;;;;;4899798;29;20492;-89
2023/11/18 13:28:46;;;;;;;2.57;2.43;;;9.20;94.90;;;;;;4901259;29;20525;-89
2023/11/18 13:31:16;;;;;;;1.97;1.87;;;8.90;94.70;;;;;;4901449;29;20452;-89
2023/11/18 13:33:42;;;;;;;8.53;2.47;;;8.80;95.80;;;;;;4897777;29;20430;-89
2023/11/18 13:36:12;;;;;;;4.33;1.90;;;8.70;95.90;;;;;;4897546;29;20476;-89
2023/11/18 13:38:38;;;;;;;3.33;2.13;;;8.60;96.50;;;;;;4901038;29;20508;-88
2023/11/18 13:41:04;;;;;;;4.57;3.10;;;8.50;96.50;;;;;;4899977;29;20453;-90
2023/11/18 13:43:49;;;;;;;8.87;3.20;;;8.40;97.00;;;;;;4899189;29;20440;-89
2023/11/18 13:46:18;;;;;;;1.97;1.87;;;8.30;97.30;;;;;;4898530;29;20433;-88
2023/11/18 13:48:48;;;;;;;5.13;3.00;;;8.30;97.30;;;;;;4897880;29;20736;-87
2023/11/18 13:51:15;;;;;;;10.40;4.97;;;8.30;97.30;;;;;;4898328;29;20445;-89
2023/11/18 13:53:43;;;;;;;2.83;2.20;;;8.20;97.30;;;;;;4897606;29;20437;-89
2023/11/18 13:56:12;;;;;;;4.73;3.20;;;8.20;97.30;;;;;;4899112;29;20853;-89
2023/11/18 13:58:39;;;;;;;3.50;3.30;;;8.10;97.30;;;;;;4898591;29;20468;-88
2023/11/18 14:01:08;;;;;;;2.33;2.13;;;8.10;97.30;;;;;;4896912;29;20477;-89
2023/11/18 14:03:37;;;;;;;3.00;1.70;;;8.00;97.30;;;;;;4897739;29;20425;-89
2023/11/18 14:06:12;;;;;;;3.50;3.03;;;8.00;97.30;;;;;;4896606;29;20469;-89
2023/11/18 14:08:38;;;;;;;2.60;1.90;;;7.90;97.30;;;;;;4897603;29;20440;-89
2023/11/18 14:11:05;;;;;;;1.67;1.57;;;7.90;97.30;;;;;;4897490;29;20457;-89
2023/11/18 14:13:34;;;;;;;1.93;1.83;;;7.80;97.30;;;;;;4896610;29;20469;-89
2023/11/18 14:16:00;;;;;;;5.17;3.30;;;7.70;97.30;;;;;;4897834;29;20446;-89
2023/11/18 14:18:27;;;;;;;2.93;2.73;;;7.70;97.30;;;;;;4896827;29;20433;-89
2023/11/18 14:20:52;;;;;;;2.00;1.87;;;7.60;97.30;;;;;;4896383;29;20547;-89
2023/11/18 14:23:18;;;;;;;4.27;2.80;;;7.50;97.30;;;;;;4898147;29;20509;-90
2023/11/18 14:25:45;;;;;;;3.17;2.87;;;7.50;97.30;;;;;;4896609;29;20249;-89
2023/11/18 14:28:11;;;;;;;4.40;2.80;;;7.40;97.30;;;;;;4896857;29;20675;-89
2023/11/18 14:30:36;;;;;;;2.67;2.47;;;7.40;97.30;;;;;;4897445;29;20477;-90
2023/11/18 14:33:03;;;;;;;4.60;3.20;;;7.30;97.30;;;;;;4896859;29;20229;-88
2023/11/18 14:35:29;;;;;;;8.60;3.53;;;7.30;97.30;;;;;;4897785;29;20193;-89
2023/11/18 14:37:55;;;;;;;1.40;1.30;;;7.20;97.30;;;;;;4896220;29;20473;-88
2023/11/18 14:40:23;;;;;;;4.43;2.10;;;7.20;97.30;;;;;;4897332;29;20181;-89
2023/11/18 14:42:50;;;;;;;4.33;3.03;;;7.10;97.30;;;;;;4895933;29;20456;-89
2023/11/18 14:45:16;;;;;;;2.70;2.50;;;7.00;97.30;;;;;;4897674;29;20951;-89
2023/11/18 14:47:48;;;;;;;3.77;2.40;;;7.00;97.30;;;;;;4896217;29;20995;-88
2023/11/18 14:50:20;;;;;;;4.40;2.50;;;7.00;97.30;;;;;;4896146;29;20522;-88
2023/11/18 14:52:48;;;;;;;2.60;1.47;;;7.00;97.30;;;;;;4896074;29;20449;-89
2023/11/18 14:55:17;;;;;;;2.30;2.10;;;6.90;97.30;;;;;;4896395;29;20445;-88
2023/11/18 14:57:43;;;;;;;4.77;2.33;;;6.90;97.30;;;;;;4895810;29;20485;-89
2023/11/18 15:00:21;;;;;;;3.80;3.23;;;6.80;97.30;;;;;;4896082;29;20429;-88
2023/11/18 15:02:48;;;;;;;2.90;2.70;;;6.70;97.30;;;;;;4895757;29;20480;-88
2023/11/18 15:05:18;;;;;;;4.10;3.10;;;6.70;97.30;;;;;;4896315;29;20438;-89
2023/11/18 15:07:45;;;;;;;4.10;2.70;;;6.60;97.30;;;;;;4895783;29;20805;-89
2023/11/18 15:10:10;;;;;;;2.00;1.90;;;6.50;97.30;;;;;;4895627;29;20441;-89
2023/11/18 15:12:37;;;;;;;3.17;2.30;;;6.50;97.30;;;;;;4896416;29;20448;-87
2023/11/18 15:15:04;;;;;;;2.37;2.17;;;6.50;97.30;;;;;;4894954;29;20185;-89
2023/11/18 15:17:29;;;;;;;2.60;2.20;;;6.40;97.30;;;;;;4894945;29;20484;-89
2023/11/18 15:19:55;;;;;;;4.73;2.73;;;6.40;97.30;;;;;;4894789;29;20429;-89
2023/11/18 15:22:22;;;;;;;4.57;3.60;;;6.40;97.30;;;;;;4895760;29;20284;-88
2023/11/18 15:24:48;;;;;;;4.93;2.93;;;6.40;97.30;;;;;;4894797;29;20852;-88
2023/11/18 15:27:15;;;;;;;4.27;4.00;;;6.30;97.30;;;;;;4895382;29;20500;-87
2023/11/18 15:29:49;;;;;;;4.00;2.90;;;6.30;97.30;;;;;;4896152;29;20185;-88
2023/11/18 15:32:18;;;;;;;5.80;4.70;;;6.20;97.30;;;;;;4895070;29;20449;-88
2023/11/18 15:34:43;;;;;;;3.37;3.03;;;6.10;97.30;;;;;;4910776;29;20718;-89
2023/11/18 15:37:09;;;;;;;2.30;2.10;;;6.10;97.30;;;;;;4896125;29;20499;-87
2023/11/18 15:39:35;;;;;;;1.77;1.63;;;6.00;97.30;;;;;;4895001;29;20182;-88
2023/11/18 15:42:00;;;;;;;2.60;2.40;;;6.00;97.30;;;;;;4910531;29;20209;-88
2023/11/18 15:44:28;;;;;;;10.13;2.57;;;6.10;97.30;;;;;;4894635;29;20193;-88
2023/11/18 15:46:54;;;;;;;2.83;1.97;;;6.00;97.30;;;;;;4887352;29;20199;-88
2023/11/18 15:49:20;;;;;;;7.93;4.93;;;6.10;97.30;;;;;;4894642;29;20871;-89
2023/11/18 15:51:46;;;;;;;5.13;2.23;;;6.10;97.30;;;;;;4894859;29;20205;-89
2023/11/18 15:54:15;;;;;;;3.33;2.93;;;6.00;97.30;;;;;;4897139;29;20213;-89
2023/11/18 15:56:42;;;;;;;2.00;1.90;;;6.00;97.30;;;;;;4897035;29;20501;-88
2023/11/18 15:59:08;;;;;;;1.53;1.43;;;6.00;97.30;;;;;;4895539;29;20504;-89
2023/11/18 16:01:34;;;;;;;2.57;2.40;;;6.00;97.30;;;;;;4892480;29;20501;-87
2023/11/18 16:04:00;;;;;;;5.20;3.43;;;5.90;97.30;;;;;;4895795;29;20473;-89
2023/11/18 16:06:25;;;;;;;2.27;2.07;;;5.90;97.30;;;;;;4894557;29;20422;-88
2023/11/18 16:08:51;;;;;;;3.93;3.73;;;5.90;97.30;;;;;;4895822;29;20193;-87
2023/11/18 16:11:17;;;;;;;5.10;2.97;;;5.90;97.30;;;;;;4894169;29;20213;-88
2023/11/18 16:13:43;;;;;;;7.97;5.00;;;5.80;97.30;;;;;;4893417;29;20193;-88
2023/11/18 16:16:08;;;;;;;4.93;3.60;;;5.80;97.30;;;;;;4894485;29;20189;-89
2023/11/18 16:18:34;;;;;;;3.53;3.33;;;5.80;97.30;;;;;;4894279;29;20189;-88
2023/11/18 16:21:03;;;;;;;5.47;2.57;;;5.80;97.30;;;;;;4894192;29;20311;-88
2023/11/18 16:23:34;;;;;;;1.27;1.17;;;5.80;97.30;;;;;;4893975;29;20489;-88
2023/11/18 16:26:03;;;;;;;3.27;3.07;;;5.80;97.30;;;;;;4891185;29;20509;-88
2023/11/18 16:28:29;;;;;;;3.10;2.20;;;5.80;97.30;;;;;;4892214;29;20528;-88
2023/11/18 16:30:58;;;;;;;5.03;2.63;;;5.80;97.30;;;;;;4894166;29;20528;-88
2023/11/18 16:33:25;;;;;;;4.37;3.17;;;5.80;97.30;;;;;;4894152;29;20731;-88
2023/11/18 16:35:52;;;;;;;2.97;2.70;;;5.80;97.30;;;;;;4893944;29;20437;-88
2023/11/18 16:38:18;;;;;;;5.20;4.63;;;5.80;97.30;;;;;;4895376;29;20745;-89
2023/11/18 16:40:44;;;;;;;2.00;1.90;;;5.80;97.30;;;;;;4894651;29;20475;-89
2023/11/18 16:43:09;;;;;;;5.80;2.40;;;5.80;97.30;;;;;;4894658;29;20774;-89
2023/11/18 16:45:37;;;;;;;2.37;2.17;;;5.80;97.30;;;;;;4894368;29;20625;-89
2023/11/18 16:48:04;;;;;;;3.17;2.10;;;5.80;97.30;;;;;;4893618;29;20667;-89
2023/11/18 16:50:29;;;;;;;5.70;5.20;;;5.80;97.30;;;;;;4894973;29;20425;-90
2023/11/18 16:52:55;;;;;;;9.93;3.87;;;5.80;97.30;;;;;;4890703;29;20486;-87
2023/11/18 16:55:21;;;;;;;6.40;2.33;;;5.80;97.30;;;;;;4894009;29;20276;-89
2023/11/18 16:57:46;;;;;;;5.37;2.50;;;5.80;97.30;;;;;;4893755;29;20221;-89
2023/11/18 17:00:15;;;;;;;4.63;3.53;;;5.80;97.30;;;;;;4895098;29;20185;-89
2023/11/18 17:02:54;;;;;;;5.33;3.77;;;5.80;97.30;;;;;;4912449;29;20236;-89
2023/11/18 17:05:20;;;;;;;2.00;1.77;;;5.80;97.30;;;;;;4896930;29;20882;-89
2023/11/18 17:07:46;;;;;;;3.90;2.40;;;5.80;97.30;;;;;;4896860;29;20745;-89
2023/11/18 17:10:12;;;;;;;2.40;2.20;;;5.80;97.30;;;;;;4895791;29;20484;-89
2023/11/18 17:12:42;;;;;;;3.77;2.60;;;5.80;97.30;;;;;;4908213;29;20579;-89
2023/11/18 17:15:12;;;;;;;4.30;2.80;;;5.80;97.30;;;;;;4897464;29;20433;-88
2023/11/18 17:17:42;;;;;;;3.43;2.97;;;5.80;97.30;;;;;;4916923;29;20559;-88
2023/11/18 17:20:09;;;;;;;5.43;3.20;;;5.80;97.30;;;;;;4916254;29;20457;-89
2023/11/18 17:22:38;;;;;;;2.43;2.27;;;5.80;97.30;;;;;;4903710;29;20456;-88
2023/11/18 17:25:12;;;;;;;2.40;2.07;;;5.80;97.30;;;;;;4901403;29;20432;-88
2023/11/18 17:27:39;;;;;;;14.93;3.27;;;5.80;97.30;;;;;;4901296;29;20428;-88
2023/11/18 17:30:11;;;;;;;3.63;3.43;;;5.80;97.30;;;;;;4918136;29;20428;-88
2023/11/18 17:32:38;;;;;;;4.47;3.50;;;5.80;97.30;;;;;;4899238;29;20472;-87
2023/11/18 17:35:05;;;;;;;2.03;1.90;;;5.80;97.30;;;;;;4901379;29;20800;-89
2023/11/18 17:37:30;;;;;;;5.23;3.17;;;5.80;97.30;;;;;;4917993;29;20492;-89
2023/11/18 17:39:57;;;;;;;1.47;1.37;;;5.80;97.30;;;;;;4905121;29;20453;-88
2023/11/18 17:42:23;;;;;;;2.13;1.97;;;5.70;97.30;;;;;;4901028;29;20197;-88
2023/11/18 17:44:48;;;;;;;5.43;4.00;;;5.80;97.30;;;;;;4916788;29;20496;-89
2023/11/18 17:47:14;;;;;;;1.80;1.70;;;5.80;97.30;;;;;;4915861;29;20212;-89
2023/11/18 17:49:39;;;;;;;8.03;5.63;;;5.80;97.30;;;;;;4900386;29;20185;-88
2023/11/18 17:52:05;;;;;;;5.00;3.10;;;5.80;97.30;;;;;;4915598;29;20680;-89
2023/11/18 17:54:31;;;;;;;6.83;5.50;;;5.80;97.30;;;;;;4917143;29;20196;-89
2023/11/18 17:56:58;;;;;;;2.63;2.20;;;5.70;97.30;;;;;;4899930;29;20208;-88
2023/11/18 17:59:23;;;;;;;4.67;3.57;;;5.70;97.30;;;;;;4900597;29;20184;-89
2023/11/18 18:01:49;;;;;;;2.00;1.83;;;5.70;97.30;;;;;;4899282;29;20531;-87
2023/11/18 18:04:14;;;;;;;2.40;2.23;;;5.70;97.30;;;;;;4899201;29;20195;-89